KIFP

Details ICAO KIFP
Name Laughlin Bullhead Intl
Region United States
Timezone America/Phoenix (UTC-7.0)
Plans Departing 20
Arriving 37
Stats Elevation 701 ft / 214 m (AMSL)
Location 35.155985° -114.559436°
Runways 1
Magnetic Variation 11.334° E
Sunrise 2017-12-10 14:37:26 UTC / 2017-12-10 07:37:26 Local
Sunset 2017-12-11 00:27:51 UTC / 2017-12-10 17:27:51 Local
Advertisement - Login to hide

Runways

ID Width Length Bearing (true) Bearing (mag) Surface Threshold Offset Overrun Length
16 151 ft / 46 m 7,518 ft / 2,292 m 176.47° 165.14° Asphalt 0 ft / 0 m 699 ft / 213 m
34 151 ft / 46 m 7,518 ft / 2,292 m 356.47° 345.14° Asphalt 0 ft / 0 m 200 ft / 61 m

Map

Weather


0- 5 10 15 20 25 30 35+ Temperature / ° C

Clouds and Precipitation
Forecast for 2017-12-11 06:00 UTC. Updated 23 minutes ago

Ground ~20,000 ft ~40,000 ft Winds

METAR

KIFP 110535Z AUTO 02020KT 10SM CLR 19/M16 A3025 RMK AO2

TAF

TAF KIFP 102320Z 1100/1124 01022G30KT P6SM BKN250 FM110400 02016G24KT P6SM BKN250 FM111600 01024G32KT P6SM BKN250

Frequencies

Recorded 119.83 MHz AWOS
Ground 118.25 MHz GND
Unicom 123.90 MHz CTAF
Tower 123.90 MHz TWR
Warning: Do not use this data for real-world aviation or navigation. No guarantee of current accuracy is given.